createdAt,value
2022-12-16T00:01:19.236Z,99421.91
2022-12-16T00:03:49.716Z,99427.47
2022-12-16T00:06:20.948Z,99430.91
2022-12-16T00:08:48.983Z,99435.28
2022-12-16T00:11:18.426Z,99429.91
2022-12-16T00:13:46.386Z,99438.81
2022-12-16T00:16:17.359Z,99434.28
2022-12-16T00:18:45.854Z,99428.00
2022-12-16T00:21:14.245Z,99418.25
2022-12-16T00:23:42.979Z,99431.59
2022-12-16T00:26:11.566Z,99437.78
2022-12-16T00:28:43.789Z,99436.06
2022-12-16T00:31:11.860Z,99444.91
2022-12-16T00:33:39.734Z,99452.84
2022-12-16T00:36:08.654Z,99469.59
2022-12-16T00:38:36.722Z,99460.72
2022-12-16T00:41:04.987Z,99473.97
2022-12-16T00:43:33.656Z,99473.13
2022-12-16T00:46:03.316Z,99481.97
2022-12-16T00:48:31.369Z,99483.66
2022-12-16T00:50:59.147Z,99461.56
2022-12-16T00:53:27.653Z,99488.06
2022-12-16T00:56:03.072Z,99495.41
2022-12-16T00:58:31.020Z,99494.25
2022-12-16T01:00:58.974Z,99489.00
2022-12-16T01:03:28.577Z,99480.97
2022-12-16T01:05:56.586Z,99482.66
2022-12-16T01:08:24.423Z,99493.38
2022-12-16T01:10:53.067Z,99488.91
2022-12-16T01:13:25.307Z,99496.09
2022-12-16T01:15:53.867Z,99497.03
2022-12-16T01:18:22.312Z,99496.00
2022-12-16T01:20:51.606Z,99487.06
2022-12-16T01:23:20.208Z,99486.16
2022-12-16T01:25:52.559Z,99495.13
2022-12-16T01:28:20.683Z,99495.91
2022-12-16T01:30:48.719Z,99496.81
2022-12-16T01:33:17.888Z,99511.84
2022-12-16T01:35:55.278Z,99522.38
2022-12-16T01:38:25.593Z,99524.00
2022-12-16T01:40:54.963Z,99516.16
2022-12-16T01:43:27.104Z,99517.00
2022-12-16T01:46:00.395Z,99523.34
2022-12-16T01:48:45.911Z,99521.41
2022-12-16T01:51:19.524Z,99526.63
2022-12-16T01:53:52.534Z,99525.84
2022-12-16T01:56:26.612Z,99519.50
2022-12-16T01:58:56.269Z,99509.56
2022-12-16T02:01:24.620Z,99515.88
2022-12-16T02:03:55.408Z,99509.66
2022-12-16T02:06:23.530Z,99517.53
2022-12-16T02:08:58.018Z,99519.44
2022-12-16T02:11:48.656Z,99514.06
2022-12-16T02:14:37.161Z,99522.88
2022-12-16T02:17:16.030Z,99522.03
2022-12-16T02:20:23.961Z,99513.97
2022-12-16T02:23:09.595Z,99521.00
2022-12-16T02:25:57.516Z,99523.84
2022-12-16T02:28:40.349Z,99523.75
2022-12-16T02:31:20.697Z,99516.69
2022-12-16T02:33:58.900Z,99521.13
2022-12-16T02:36:42.432Z,99524.63
2022-12-16T02:39:16.215Z,99519.44
2022-12-16T02:41:50.511Z,99515.69
2022-12-16T02:44:19.602Z,99526.31
2022-12-16T02:46:55.936Z,99514.78
2022-12-16T02:49:49.382Z,99524.56
2022-12-16T02:52:20.457Z,99526.38
2022-12-16T02:54:50.338Z,99527.19
2022-12-16T02:57:30.876Z,99535.22
2022-12-16T03:00:05.890Z,99525.16
2022-12-16T03:02:43.184Z,99537.78
2022-12-16T03:05:15.757Z,99535.00
2022-12-16T03:07:46.174Z,99532.34
2022-12-16T03:10:18.341Z,99535.03
2022-12-16T03:12:47.409Z,99525.22
2022-12-16T03:15:18.292Z,99537.75
2022-12-16T03:17:50.231Z,99539.47
2022-12-16T03:20:24.259Z,99535.03
2022-12-16T03:22:54.067Z,99538.56
2022-12-16T03:25:24.332Z,99541.31
2022-12-16T03:28:00.115Z,99545.66
2022-12-16T03:30:32.423Z,99532.44
2022-12-16T03:33:05.131Z,99549.34
2022-12-16T03:35:37.713Z,99564.31
2022-12-16T03:38:09.812Z,99552.72
2022-12-16T03:40:39.688Z,99545.59
2022-12-16T03:43:08.890Z,99559.59
2022-12-16T03:45:40.014Z,99554.41
2022-12-16T03:48:11.635Z,99559.59
2022-12-16T03:50:40.656Z,99573.09
2022-12-16T03:53:09.302Z,99558.00
2022-12-16T03:55:37.327Z,99533.13
2022-12-16T03:58:05.243Z,99557.84
2022-12-16T04:00:33.182Z,99563.28
2022-12-16T04:03:01.209Z,99569.28
2022-12-16T04:05:30.820Z,99565.78
2022-12-16T04:08:01.851Z,99567.47
2022-12-16T04:10:44.146Z,99555.09
2022-12-16T04:13:29.546Z,99559.59
2022-12-16T04:16:17.207Z,99564.13
2022-12-16T04:19:02.577Z,99561.50
2022-12-16T04:21:49.410Z,99570.41
2022-12-16T04:24:20.982Z,99563.25
2022-12-16T04:27:11.925Z,99564.06
2022-12-16T04:29:57.081Z,99572.91
2022-12-16T04:32:25.306Z,99569.31
2022-12-16T04:34:52.401Z,99558.78
2022-12-16T04:37:38.969Z,99589.47
2022-12-16T04:40:21.782Z,99608.66
2022-12-16T04:43:07.244Z,99608.72
2022-12-16T04:45:51.695Z,99599.84
2022-12-16T04:48:36.910Z,99591.91
2022-12-16T04:51:22.163Z,99604.34
2022-12-16T04:54:09.136Z,99601.75
2022-12-16T04:56:54.272Z,99608.63
2022-12-16T04:59:39.841Z,99607.78
2022-12-16T05:02:25.174Z,99613.09
2022-12-16T05:05:10.374Z,99615.84
2022-12-16T05:08:10.039Z,99619.34
2022-12-16T05:10:56.676Z,99614.16
2022-12-16T05:13:41.958Z,99614.19
2022-12-16T05:16:27.308Z,99606.16
2022-12-16T05:19:12.602Z,99599.97
2022-12-16T05:21:57.949Z,99594.59
2022-12-16T05:24:44.576Z,99592.91
2022-12-16T05:27:34.197Z,99599.09
2022-12-16T05:30:19.483Z,99617.63
2022-12-16T05:33:07.347Z,99621.00
2022-12-16T05:35:53.884Z,99626.38
2022-12-16T05:38:39.168Z,99624.47
2022-12-16T05:41:24.397Z,99637.78
2022-12-16T05:44:11.196Z,99642.31
2022-12-16T05:46:56.578Z,99644.00
2022-12-16T05:49:41.925Z,99646.63
2022-12-16T05:52:27.748Z,99656.31
2022-12-16T05:55:13.043Z,99668.69
2022-12-16T05:57:58.356Z,99666.81
2022-12-16T06:00:45.464Z,99675.63
2022-12-16T06:03:31.229Z,99664.91
2022-12-16T06:06:16.775Z,99662.22
2022-12-16T06:09:01.983Z,99661.31
2022-12-16T06:11:47.251Z,99684.16
2022-12-16T06:14:32.708Z,99696.63
2022-12-16T06:17:19.576Z,99693.94
2022-12-16T06:20:04.936Z,99694.69
2022-12-16T06:22:50.103Z,99686.69
2022-12-16T06:25:36.163Z,99688.44
2022-12-16T06:28:21.658Z,99686.66
2022-12-16T06:31:06.964Z,99687.41
2022-12-16T06:33:55.124Z,99694.41
2022-12-16T06:36:41.038Z,99719.25
2022-12-16T06:39:40.707Z,99708.53
2022-12-16T06:42:26.387Z,99715.66
2022-12-16T06:45:11.997Z,99723.56
2022-12-16T06:47:57.780Z,99725.16
2022-12-16T06:50:45.196Z,99735.72
2022-12-16T06:53:31.123Z,99741.03
2022-12-16T06:56:17.208Z,99734.81
2022-12-16T06:59:02.869Z,99743.53
2022-12-16T07:01:48.559Z,99760.31
2022-12-16T07:04:34.061Z,99762.88
2022-12-16T07:07:20.945Z,99762.88
2022-12-16T07:10:08.426Z,99763.75
2022-12-16T07:12:53.649Z,99769.88
2022-12-16T07:15:39.056Z,99770.69
2022-12-16T07:18:24.252Z,99788.31
2022-12-16T07:21:09.296Z,99790.94
2022-12-16T07:23:56.091Z,99788.28
2022-12-16T07:26:43.642Z,99799.59
2022-12-16T07:29:28.803Z,99789.94
2022-12-16T07:32:14.070Z,99811.06
2022-12-16T07:35:13.927Z,99803.09
2022-12-16T07:37:59.422Z,99807.44
2022-12-16T07:40:46.053Z,99808.13
2022-12-16T07:43:31.607Z,99816.09
2022-12-16T07:46:17.349Z,99806.25
2022-12-16T07:49:02.619Z,99798.19
2022-12-16T07:51:47.828Z,99815.91
2022-12-16T07:54:29.592Z,99806.94
2022-12-16T07:57:16.584Z,99817.50
2022-12-16T08:00:02.262Z,99812.06
2022-12-16T08:02:57.746Z,99804.09
2022-12-16T08:05:43.204Z,99811.09
2022-12-16T08:08:28.452Z,99810.06
2022-12-16T08:11:13.747Z,99802.91
2022-12-16T08:14:00.681Z,99809.97
2022-12-16T08:16:45.971Z,99796.53
2022-12-16T08:19:31.347Z,99800.00
2022-12-16T08:22:16.776Z,99793.63
2022-12-16T08:25:02.148Z,99801.59
2022-12-16T08:27:47.528Z,99796.28
2022-12-16T08:30:34.488Z,99785.56
2022-12-16T08:33:20.109Z,99790.84
2022-12-16T08:36:05.953Z,99796.19
2022-12-16T08:38:52.030Z,99783.50
2022-12-16T08:41:38.136Z,99786.28
2022-12-16T08:44:23.482Z,99784.41
2022-12-16T08:47:10.817Z,99790.53
2022-12-16T08:49:59.679Z,99794.84
2022-12-16T08:52:47.247Z,99779.69
2022-12-16T08:55:33.157Z,99799.13
2022-12-16T08:58:18.552Z,99798.31
2022-12-16T09:01:07.343Z,99792.16
2022-12-16T09:03:54.553Z,99785.88
2022-12-16T09:06:41.242Z,99785.88
2022-12-16T09:09:27.005Z,99780.50
2022-12-16T09:12:12.259Z,99777.75
2022-12-16T09:14:57.392Z,99781.31
2022-12-16T09:17:42.733Z,99769.47
2022-12-16T09:20:30.072Z,99768.78
2022-12-16T09:23:15.442Z,99770.38
2022-12-16T09:26:00.739Z,99756.25
2022-12-16T09:28:46.187Z,99745.69
2022-12-16T09:31:31.699Z,99740.53
2022-12-16T09:34:17.122Z,99742.41
2022-12-16T09:37:04.141Z,99735.38
2022-12-16T09:39:49.614Z,99729.75
2022-12-16T09:42:45.640Z,99727.19
2022-12-16T09:45:41.532Z,99714.59
2022-12-16T09:48:33.921Z,99708.16
2022-12-16T09:51:23.652Z,99710.53
2022-12-16T09:54:12.800Z,99720.31
2022-12-16T09:56:58.171Z,99719.34
2022-12-16T09:59:48.064Z,99722.06
2022-12-16T10:02:36.461Z,99719.31
2022-12-16T10:05:28.448Z,99716.75
2022-12-16T10:08:23.344Z,99720.09
2022-12-16T10:11:21.585Z,99713.00
2022-12-16T10:14:19.291Z,99728.00
2022-12-16T10:17:13.741Z,99716.53
2022-12-16T10:20:10.600Z,99719.94
2022-12-16T10:23:02.532Z,99727.88
2022-12-16T10:25:53.635Z,99719.75
2022-12-16T10:28:55.493Z,99723.16
2022-12-16T10:31:40.754Z,99719.53
2022-12-16T10:34:32.863Z,99726.66
2022-12-16T10:37:21.303Z,99737.53
2022-12-16T10:40:09.906Z,99723.16
2022-12-16T10:43:00.686Z,99730.06
2022-12-16T10:45:50.157Z,99726.53
2022-12-16T10:48:47.953Z,99712.69
2022-12-16T10:51:40.224Z,99717.28
2022-12-16T10:54:43.180Z,99720.75
2022-12-16T10:57:36.886Z,99717.13
2022-12-16T11:00:32.256Z,99707.19
2022-12-16T11:03:37.217Z,99697.50
2022-12-16T11:06:23.708Z,99707.25
2022-12-16T11:09:08.920Z,99712.69
2022-12-16T11:11:55.650Z,99708.97
2022-12-16T11:17:42.988Z,99683.53
2022-12-16T11:20:36.719Z,99671.59
2022-12-16T11:23:36.564Z,99672.31
2022-12-16T11:26:24.622Z,99687.03
2022-12-16T11:29:23.023Z,99679.53
2022-12-16T11:32:19.022Z,99672.34
2022-12-16T11:35:08.225Z,99677.72
2022-12-16T11:37:56.534Z,99677.50
2022-12-16T11:40:48.525Z,99669.41
2022-12-16T11:43:38.783Z,99665.84
2022-12-16T11:46:31.156Z,99671.25
2022-12-16T11:49:24.747Z,99660.47
2022-12-16T11:56:04.936Z,99667.75
2022-12-16T11:58:56.513Z,99650.84
2022-12-16T12:01:47.190Z,99654.19
2022-12-16T12:04:33.283Z,99653.19
2022-12-16T12:07:48.551Z,99651.44
2022-12-16T12:10:51.668Z,99637.31
2022-12-16T12:13:52.094Z,99622.69
2022-12-16T12:16:49.670Z,99614.16
2022-12-16T12:19:43.764Z,99614.16
2022-12-16T12:22:44.231Z,99607.91
2022-12-16T12:25:40.595Z,99607.03
2022-12-16T12:28:35.617Z,99603.66
2022-12-16T12:31:58.945Z,99597.97
2022-12-16T12:35:34.247Z,99603.03
2022-12-16T12:38:33.813Z,99608.84
2022-12-16T12:41:43.453Z,99608.47
2022-12-16T12:44:48.566Z,99594.84
2022-12-16T12:47:43.742Z,99613.56
2022-12-16T12:50:40.012Z,99602.72
2022-12-16T12:53:41.505Z,99602.84
2022-12-16T12:56:52.649Z,99575.91
2022-12-16T12:59:47.298Z,99587.38
2022-12-16T13:02:38.717Z,99600.06
2022-12-16T13:05:25.423Z,99598.19
2022-12-16T13:08:11.758Z,99586.50
2022-12-16T13:10:57.959Z,99587.25
2022-12-16T13:13:55.671Z,99580.91
2022-12-16T13:17:18.933Z,99583.53
2022-12-16T13:20:16.652Z,99576.06
2022-12-16T13:23:04.141Z,99578.41
2022-12-16T13:25:53.137Z,99563.31
2022-12-16T13:28:41.398Z,99571.81
2022-12-16T13:31:29.860Z,99576.47
2022-12-16T13:34:21.758Z,99579.72
2022-12-16T13:37:20.812Z,99584.94
2022-12-16T13:40:24.787Z,99566.16
2022-12-16T13:43:18.216Z,99578.69
2022-12-16T13:46:37.013Z,99586.94
2022-12-16T13:49:58.534Z,99588.91
2022-12-16T13:53:00.260Z,99589.81
2022-12-16T13:56:38.416Z,99609.41
2022-12-16T13:59:42.296Z,99601.44
2022-12-16T14:02:50.393Z,99598.63
2022-12-16T14:05:38.970Z,99613.06
2022-12-16T14:08:47.545Z,99605.41
2022-12-16T14:11:38.404Z,99624.66
2022-12-16T14:14:32.301Z,99619.56
2022-12-16T14:17:44.892Z,99619.69
2022-12-16T14:20:38.288Z,99622.94
2022-12-16T14:24:01.032Z,99620.78
2022-12-16T14:26:57.248Z,99618.34
2022-12-16T14:29:49.454Z,99622.84
2022-12-16T14:32:49.312Z,99621.81
2022-12-16T14:35:41.833Z,99618.28
2022-12-16T14:38:45.677Z,99615.28
2022-12-16T14:41:33.506Z,99610.78
2022-12-16T14:44:22.660Z,99628.69
2022-12-16T14:47:13.823Z,99633.19
2022-12-16T14:50:10.416Z,99630.28
2022-12-16T14:53:09.739Z,99632.34
2022-12-16T14:55:55.361Z,99634.66
2022-12-16T14:58:44.158Z,99639.41
2022-12-16T15:01:32.955Z,99631.91
2022-12-16T15:04:20.245Z,99648.91
2022-12-16T15:07:31.016Z,99653.41
2022-12-16T15:10:21.499Z,99645.38
2022-12-16T15:13:11.136Z,99642.09
2022-12-16T15:16:01.503Z,99647.69
2022-12-16T15:18:58.394Z,99646.06
2022-12-16T15:21:47.860Z,99649.44
2022-12-16T15:24:38.453Z,99654.16
2022-12-16T15:27:43.622Z,99648.56
2022-12-16T15:30:51.265Z,99661.81
2022-12-16T15:33:43.516Z,99667.13
2022-12-16T15:36:45.568Z,99673.16
2022-12-16T15:39:40.693Z,99673.94
2022-12-16T15:42:39.308Z,99681.22
2022-12-16T15:45:37.185Z,99673.25
2022-12-16T15:48:31.686Z,99672.28
2022-12-16T15:51:17.925Z,99667.13
2022-12-16T15:54:04.108Z,99682.16
2022-12-16T15:57:01.878Z,99692.31
2022-12-16T15:59:51.510Z,99692.16
2022-12-16T16:02:40.617Z,99692.06
2022-12-16T16:05:35.162Z,99689.31
2022-12-16T16:08:20.987Z,99683.03
2022-12-16T16:11:06.862Z,99679.06
2022-12-16T16:13:52.230Z,99686.06
2022-12-16T16:16:39.038Z,99686.16
2022-12-16T16:19:30.839Z,99689.84
2022-12-16T16:22:16.848Z,99692.41
2022-12-16T16:25:08.865Z,99693.81
2022-12-16T16:28:01.029Z,99694.72
2022-12-16T16:30:46.772Z,99707.38
2022-12-16T16:33:34.154Z,99695.81
2022-12-16T16:36:20.475Z,99692.25
2022-12-16T16:39:05.648Z,99698.66
2022-12-16T16:41:50.888Z,99700.56
2022-12-16T16:44:44.955Z,99723.50
2022-12-16T16:47:35.301Z,99723.78
2022-12-16T16:50:22.837Z,99728.56
2022-12-16T16:53:22.346Z,99743.28
2022-12-16T16:56:23.608Z,99753.16
2022-12-16T16:59:09.159Z,99742.19
2022-12-16T17:01:54.666Z,99737.38
2022-12-16T17:04:40.247Z,99736.78
2022-12-16T17:07:27.412Z,99744.47
2022-12-16T17:10:09.237Z,99743.47
2022-12-16T17:12:58.562Z,99747.88
2022-12-16T17:15:55.468Z,99748.75
2022-12-16T17:18:47.796Z,99766.00
2022-12-16T17:21:38.265Z,99746.94
2022-12-16T17:24:54.130Z,99732.53
2022-12-16T17:27:45.238Z,99747.75
2022-12-16T17:30:35.063Z,99748.03
2022-12-16T17:33:21.320Z,99761.38
2022-12-16T17:36:07.699Z,99758.16
2022-12-16T17:39:00.190Z,99762.22
2022-12-16T17:41:53.775Z,99775.78
2022-12-16T17:44:50.993Z,99779.19
2022-12-16T17:47:37.243Z,99790.00
2022-12-16T17:50:24.438Z,99793.81
2022-12-16T17:53:12.750Z,99790.50
2022-12-16T17:55:58.069Z,99789.59
2022-12-16T17:58:53.641Z,99780.41
2022-12-16T18:01:42.284Z,99770.63
2022-12-16T18:04:31.118Z,99762.63
2022-12-16T18:07:16.725Z,99765.13
2022-12-16T18:10:02.147Z,99763.91
2022-12-16T18:12:48.458Z,99777.44
2022-12-16T18:15:40.732Z,99768.59
2022-12-16T18:18:27.821Z,99768.53
2022-12-16T18:21:15.708Z,99771.44
2022-12-16T18:24:07.234Z,99779.75
2022-12-16T18:26:55.265Z,99770.50
2022-12-16T18:29:45.004Z,99767.78
2022-12-16T18:32:45.511Z,99768.78
2022-12-16T18:35:31.985Z,99769.38
2022-12-16T18:41:45.996Z,99766.22
2022-12-16T18:44:35.646Z,99772.56
2022-12-16T18:47:22.701Z,99774.09
2022-12-16T18:50:27.956Z,99784.06
2022-12-16T18:53:19.458Z,99777.63
2022-12-16T18:56:05.877Z,99790.00
2022-12-16T18:58:53.611Z,99782.84
2022-12-16T19:01:39.112Z,99780.91
2022-12-16T19:04:25.355Z,99793.78
2022-12-16T19:07:27.306Z,99783.75
2022-12-16T19:10:17.637Z,99778.25
2022-12-16T19:13:15.637Z,99778.19
2022-12-16T19:16:02.558Z,99789.78
2022-12-16T19:18:48.893Z,99795.28
2022-12-16T19:21:37.345Z,99809.34
2022-12-16T19:24:27.312Z,99806.78
2022-12-16T19:27:15.463Z,99809.63
2022-12-16T19:30:01.333Z,99817.31
2022-12-16T19:32:47.289Z,99824.06
2022-12-16T19:35:33.461Z,99818.50
2022-12-16T19:38:33.317Z,99813.78
2022-12-16T19:41:20.665Z,99793.47
2022-12-16T19:44:06.780Z,99781.09
2022-12-16T19:46:53.399Z,99770.75
2022-12-16T19:49:44.475Z,99777.63
2022-12-16T19:52:31.334Z,99790.16
2022-12-16T19:55:17.846Z,99779.38
2022-12-16T19:58:05.618Z,99785.41
2022-12-16T20:00:51.597Z,99793.19
2022-12-16T20:03:39.703Z,99789.88
2022-12-16T20:06:27.637Z,99797.81
2022-12-16T20:09:20.255Z,99786.81
2022-12-16T20:12:05.951Z,99805.88
2022-12-16T20:14:53.461Z,99819.25
2022-12-16T20:17:38.739Z,99804.44
2022-12-16T20:20:25.080Z,99807.03
2022-12-16T20:23:12.399Z,99805.78
2022-12-16T20:25:59.708Z,99829.66
2022-12-16T20:28:50.961Z,99837.97
2022-12-16T20:31:38.805Z,99824.13
2022-12-16T20:34:24.047Z,99818.72
2022-12-16T20:37:09.387Z,99813.81
2022-12-16T20:39:56.929Z,99820.94
2022-12-16T20:42:42.829Z,99826.34
2022-12-16T20:45:28.875Z,99842.53
2022-12-16T20:48:15.335Z,99838.78
2022-12-16T20:51:01.309Z,99827.94
2022-12-16T20:53:47.022Z,99822.69
2022-12-16T20:56:32.221Z,99813.53
2022-12-16T20:59:17.635Z,99831.41
2022-12-16T21:05:11.367Z,99847.78
2022-12-16T21:07:56.748Z,99842.25
2022-12-16T21:10:42.579Z,99831.53
2022-12-16T21:13:30.857Z,99836.81
2022-12-16T21:16:22.134Z,99841.13
2022-12-16T21:19:07.804Z,99843.50
2022-12-16T21:21:54.768Z,99844.41
2022-12-16T21:24:41.717Z,99848.78
2022-12-16T21:27:27.537Z,99847.13
2022-12-16T21:30:16.304Z,99854.38
2022-12-16T21:33:01.791Z,99857.78
2022-12-16T21:35:47.059Z,99876.66
2022-12-16T21:38:33.739Z,99861.91
2022-12-16T21:41:19.238Z,99867.50
2022-12-16T21:44:04.502Z,99865.50
2022-12-16T21:46:49.848Z,99877.22
2022-12-16T21:49:31.614Z,99874.50
2022-12-16T21:52:16.744Z,99890.84
2022-12-16T21:55:03.316Z,99880.75
2022-12-16T21:57:48.392Z,99894.56
2022-12-16T22:00:34.342Z,99891.75
2022-12-16T22:03:20.069Z,99901.94
2022-12-16T22:06:05.973Z,99902.72
2022-12-16T22:08:53.693Z,99901.78
2022-12-16T22:11:42.790Z,99900.06
2022-12-16T22:14:27.957Z,99902.63
2022-12-16T22:17:13.105Z,99891.63
2022-12-16T22:19:58.335Z,99894.53
2022-12-16T22:22:43.761Z,99910.00
2022-12-16T22:25:29.263Z,99908.78
2022-12-16T22:28:16.253Z,99904.25
2022-12-16T22:31:01.511Z,99900.13
2022-12-16T22:33:46.684Z,99908.06
2022-12-16T22:36:32.468Z,99930.28
2022-12-16T22:39:17.897Z,99922.97
2022-12-16T22:42:03.051Z,99916.56
2022-12-16T22:44:50.000Z,99915.56
2022-12-16T22:47:35.362Z,99914.41
2022-12-16T22:50:20.458Z,99906.63
2022-12-16T22:53:06.477Z,99921.03
2022-12-16T22:55:52.110Z,99912.53
2022-12-16T22:58:37.394Z,99911.22
2022-12-16T23:01:27.031Z,99917.94
2022-12-16T23:04:12.190Z,99918.66
2022-12-16T23:06:57.561Z,99924.72
2022-12-16T23:09:43.317Z,99924.78
2022-12-16T23:12:28.629Z,99922.66
2022-12-16T23:15:14.328Z,99922.84
2022-12-16T23:18:01.660Z,99922.91
2022-12-16T23:20:47.068Z,99929.06
2022-12-16T23:23:32.237Z,99922.72
2022-12-16T23:26:20.720Z,99924.63
2022-12-16T23:29:08.253Z,99938.44
2022-12-16T23:31:54.850Z,99928.25
2022-12-16T23:34:46.071Z,99938.63
2022-12-16T23:37:34.344Z,99955.25
2022-12-16T23:40:19.585Z,99963.47
2022-12-16T23:43:06.012Z,99950.44
2022-12-16T23:45:51.466Z,99949.31
2022-12-16T23:48:37.252Z,99948.72
2022-12-16T23:51:24.037Z,99944.03
2022-12-16T23:54:10.315Z,99949.47
2022-12-16T23:56:56.416Z,99950.16
2022-12-16T23:59:41.684Z,99963.19
